sensor_id;sensor_type;location;lat;lon;timestamp;P1;durP1;ratioP1;P2;durP2;ratioP2
71606;SDS011;60641;53.556;9.914;2022-12-18T00:01:16;19.20;;;9.10;;
71606;SDS011;60641;53.556;9.914;2022-12-18T00:03:47;20.90;;;8.90;;
71606;SDS011;60641;53.556;9.914;2022-12-18T00:06:14;20.50;;;9.50;;
71606;SDS011;60641;53.556;9.914;2022-12-18T00:08:41;18.30;;;9.00;;
71606;SDS011;60641;53.556;9.914;2022-12-18T00:11:11;19.10;;;8.40;;
71606;SDS011;60641;53.556;9.914;2022-12-18T00:13:39;22.00;;;9.00;;
71606;SDS011;60641;53.556;9.914;2022-12-18T00:16:06;22.70;;;8.80;;
71606;SDS011;60641;53.556;9.914;2022-12-18T00:18:38;18.30;;;8.00;;
71606;SDS011;60641;53.556;9.914;2022-12-18T00:21:06;18.80;;;8.20;;
71606;SDS011;60641;53.556;9.914;2022-12-18T00:23:34;15.90;;;7.30;;
71606;SDS011;60641;53.556;9.914;2022-12-18T00:26:02;17.20;;;7.90;;
71606;SDS011;60641;53.556;9.914;2022-12-18T00:28:30;15.60;;;7.50;;
71606;SDS011;60641;53.556;9.914;2022-12-18T00:31:04;19.50;;;8.70;;
71606;SDS011;60641;53.556;9.914;2022-12-18T00:33:33;13.60;;;8.40;;
71606;SDS011;60641;53.556;9.914;2022-12-18T00:36:04;21.00;;;9.20;;
71606;SDS011;60641;53.556;9.914;2022-12-18T00:38:33;20.30;;;8.50;;
71606;SDS011;60641;53.556;9.914;2022-12-18T00:41:00;19.90;;;7.60;;
71606;SDS011;60641;53.556;9.914;2022-12-18T00:43:27;16.60;;;8.00;;
71606;SDS011;60641;53.556;9.914;2022-12-18T00:45:53;18.20;;;8.70;;
71606;SDS011;60641;53.556;9.914;2022-12-18T00:48:20;16.60;;;8.30;;
71606;SDS011;60641;53.556;9.914;2022-12-18T00:50:48;18.20;;;8.80;;
71606;SDS011;60641;53.556;9.914;2022-12-18T00:53:15;18.20;;;8.00;;
71606;SDS011;60641;53.556;9.914;2022-12-18T00:55:42;17.50;;;8.30;;
71606;SDS011;60641;53.556;9.914;2022-12-18T00:58:09;18.40;;;7.90;;
71606;SDS011;60641;53.556;9.914;2022-12-18T01:00:36;18.20;;;8.30;;
71606;SDS011;60641;53.556;9.914;2022-12-18T01:03:04;19.50;;;9.00;;
71606;SDS011;60641;53.556;9.914;2022-12-18T01:05:31;17.20;;;8.50;;
71606;SDS011;60641;53.556;9.914;2022-12-18T01:07:58;16.50;;;7.60;;
71606;SDS011;60641;53.556;9.914;2022-12-18T01:10:25;18.30;;;8.70;;
71606;SDS011;60641;53.556;9.914;2022-12-18T01:12:51;18.50;;;7.80;;
71606;SDS011;60641;53.556;9.914;2022-12-18T01:15:19;18.20;;;8.20;;
71606;SDS011;60641;53.556;9.914;2022-12-18T01:17:45;16.70;;;8.00;;
71606;SDS011;60641;53.556;9.914;2022-12-18T01:20:12;18.90;;;8.20;;
71606;SDS011;60641;53.556;9.914;2022-12-18T01:22:38;19.50;;;8.10;;
71606;SDS011;60641;53.556;9.914;2022-12-18T01:25:05;17.30;;;8.20;;
71606;SDS011;60641;53.556;9.914;2022-12-18T01:27:33;18.30;;;7.90;;
71606;SDS011;60641;53.556;9.914;2022-12-18T01:30:00;19.50;;;7.80;;
71606;SDS011;60641;53.556;9.914;2022-12-18T01:32:28;17.30;;;7.70;;
71606;SDS011;60641;53.556;9.914;2022-12-18T01:34:56;17.40;;;7.70;;
71606;SDS011;60641;53.556;9.914;2022-12-18T01:37:23;18.70;;;8.10;;
71606;SDS011;60641;53.556;9.914;2022-12-18T01:39:49;16.70;;;8.00;;
71606;SDS011;60641;53.556;9.914;2022-12-18T01:42:16;16.60;;;7.50;;
71606;SDS011;60641;53.556;9.914;2022-12-18T01:47:35;18.80;;;8.30;;
71606;SDS011;60641;53.556;9.914;2022-12-18T01:50:15;18.70;;;8.10;;
71606;SDS011;60641;53.556;9.914;2022-12-18T01:53:03;16.20;;;7.80;;
71606;SDS011;60641;53.556;9.914;2022-12-18T01:55:35;17.40;;;7.10;;
71606;SDS011;60641;53.556;9.914;2022-12-18T01:58:04;18.40;;;7.60;;
71606;SDS011;60641;53.556;9.914;2022-12-18T02:00:30;17.20;;;7.60;;
71606;SDS011;60641;53.556;9.914;2022-12-18T02:02:57;16.30;;;7.50;;
71606;SDS011;60641;53.556;9.914;2022-12-18T02:18:53;13.60;;;7.10;;
71606;SDS011;60641;53.556;9.914;2022-12-18T02:24:17;16.20;;;7.10;;
71606;SDS011;60641;53.556;9.914;2022-12-18T02:26:53;16.60;;;7.40;;
71606;SDS011;60641;53.556;9.914;2022-12-18T02:29:24;19.80;;;7.30;;
71606;SDS011;60641;53.556;9.914;2022-12-18T02:31:56;17.40;;;7.50;;
71606;SDS011;60641;53.556;9.914;2022-12-18T02:34:28;17.00;;;7.50;;
71606;SDS011;60641;53.556;9.914;2022-12-18T02:36:56;16.90;;;7.50;;
71606;SDS011;60641;53.556;9.914;2022-12-18T02:39:25;16.50;;;7.40;;
71606;SDS011;60641;53.556;9.914;2022-12-18T02:41:52;16.40;;;7.90;;
71606;SDS011;60641;53.556;9.914;2022-12-18T02:44:18;16.80;;;7.30;;
71606;SDS011;60641;53.556;9.914;2022-12-18T02:46:46;18.10;;;7.10;;
71606;SDS011;60641;53.556;9.914;2022-12-18T02:52:01;17.00;;;7.30;;
71606;SDS011;60641;53.556;9.914;2022-12-18T02:55:00;18.60;;;7.90;;
71606;SDS011;60641;53.556;9.914;2022-12-18T03:00:08;15.70;;;7.20;;
71606;SDS011;60641;53.556;9.914;2022-12-18T03:02:48;20.40;;;8.20;;
71606;SDS011;60641;53.556;9.914;2022-12-18T03:07:57;19.50;;;7.90;;
71606;SDS011;60641;53.556;9.914;2022-12-18T03:10:28;15.40;;;7.40;;
71606;SDS011;60641;53.556;9.914;2022-12-18T03:12:59;18.00;;;8.30;;
71606;SDS011;60641;53.556;9.914;2022-12-18T03:15:41;19.80;;;7.80;;
71606;SDS011;60641;53.556;9.914;2022-12-18T03:18:10;16.70;;;7.50;;
71606;SDS011;60641;53.556;9.914;2022-12-18T03:20:39;18.10;;;7.60;;
71606;SDS011;60641;53.556;9.914;2022-12-18T03:23:09;19.80;;;7.90;;
71606;SDS011;60641;53.556;9.914;2022-12-18T03:25:38;16.50;;;7.50;;
71606;SDS011;60641;53.556;9.914;2022-12-18T03:28:07;16.90;;;7.10;;
71606;SDS011;60641;53.556;9.914;2022-12-18T03:30:37;17.10;;;7.00;;
71606;SDS011;60641;53.556;9.914;2022-12-18T03:35:43;16.50;;;7.70;;
71606;SDS011;60641;53.556;9.914;2022-12-18T03:38:10;16.90;;;6.60;;
71606;SDS011;60641;53.556;9.914;2022-12-18T03:40:43;14.30;;;6.70;;
71606;SDS011;60641;53.556;9.914;2022-12-18T03:43:19;15.60;;;7.50;;
71606;SDS011;60641;53.556;9.914;2022-12-18T03:46:15;16.60;;;7.50;;
71606;SDS011;60641;53.556;9.914;2022-12-18T03:48:42;16.70;;;6.80;;
71606;SDS011;60641;53.556;9.914;2022-12-18T03:51:27;17.70;;;7.80;;
71606;SDS011;60641;53.556;9.914;2022-12-18T03:54:18;13.00;;;7.30;;
71606;SDS011;60641;53.556;9.914;2022-12-18T03:56:46;16.40;;;7.40;;
71606;SDS011;60641;53.556;9.914;2022-12-18T03:59:15;15.20;;;6.60;;
71606;SDS011;60641;53.556;9.914;2022-12-18T04:01:45;15.60;;;7.10;;
71606;SDS011;60641;53.556;9.914;2022-12-18T04:04:13;14.60;;;6.30;;
71606;SDS011;60641;53.556;9.914;2022-12-18T04:06:41;17.10;;;7.00;;
71606;SDS011;60641;53.556;9.914;2022-12-18T04:09:08;17.30;;;6.90;;
71606;SDS011;60641;53.556;9.914;2022-12-18T04:11:35;14.80;;;6.60;;
71606;SDS011;60641;53.556;9.914;2022-12-18T04:14:01;15.10;;;6.60;;
71606;SDS011;60641;53.556;9.914;2022-12-18T04:16:28;15.20;;;6.80;;
71606;SDS011;60641;53.556;9.914;2022-12-18T04:18:55;15.00;;;7.00;;
71606;SDS011;60641;53.556;9.914;2022-12-18T04:21:21;16.90;;;6.90;;
71606;SDS011;60641;53.556;9.914;2022-12-18T04:23:48;15.30;;;6.30;;
71606;SDS011;60641;53.556;9.914;2022-12-18T04:26:15;13.20;;;6.10;;
71606;SDS011;60641;53.556;9.914;2022-12-18T04:28:42;15.30;;;6.70;;
71606;SDS011;60641;53.556;9.914;2022-12-18T04:31:08;16.50;;;5.90;;
71606;SDS011;60641;53.556;9.914;2022-12-18T04:33:35;17.00;;;6.50;;
71606;SDS011;60641;53.556;9.914;2022-12-18T04:36:01;14.50;;;6.40;;
71606;SDS011;60641;53.556;9.914;2022-12-18T04:38:28;13.80;;;6.00;;
71606;SDS011;60641;53.556;9.914;2022-12-18T04:40:54;14.10;;;6.20;;
71606;SDS011;60641;53.556;9.914;2022-12-18T04:43:20;14.00;;;5.80;;
71606;SDS011;60641;53.556;9.914;2022-12-18T04:45:47;14.90;;;6.30;;
71606;SDS011;60641;53.556;9.914;2022-12-18T04:48:13;17.60;;;6.60;;
71606;SDS011;60641;53.556;9.914;2022-12-18T04:50:40;19.10;;;7.20;;
71606;SDS011;60641;53.556;9.914;2022-12-18T04:53:07;15.20;;;6.20;;
71606;SDS011;60641;53.556;9.914;2022-12-18T04:55:33;15.20;;;6.20;;
71606;SDS011;60641;53.556;9.914;2022-12-18T04:57:59;14.30;;;6.30;;
71606;SDS011;60641;53.556;9.914;2022-12-18T05:00:26;16.50;;;7.00;;
71606;SDS011;60641;53.556;9.914;2022-12-18T05:02:52;18.70;;;8.40;;
71606;SDS011;60641;53.556;9.914;2022-12-18T05:05:19;16.30;;;7.40;;
71606;SDS011;60641;53.556;9.914;2022-12-18T05:07:45;16.90;;;7.30;;
71606;SDS011;60641;53.556;9.914;2022-12-18T05:10:12;16.80;;;6.90;;
71606;SDS011;60641;53.556;9.914;2022-12-18T05:12:38;16.20;;;7.30;;
71606;SDS011;60641;53.556;9.914;2022-12-18T05:15:26;14.50;;;7.30;;
71606;SDS011;60641;53.556;9.914;2022-12-18T05:17:56;15.50;;;7.30;;
71606;SDS011;60641;53.556;9.914;2022-12-18T05:20:23;14.40;;;7.00;;
71606;SDS011;60641;53.556;9.914;2022-12-18T05:22:50;18.20;;;7.60;;
71606;SDS011;60641;53.556;9.914;2022-12-18T05:25:17;16.00;;;6.70;;
71606;SDS011;60641;53.556;9.914;2022-12-18T05:27:44;15.40;;;7.00;;
71606;SDS011;60641;53.556;9.914;2022-12-18T05:30:11;14.00;;;6.30;;
71606;SDS011;60641;53.556;9.914;2022-12-18T05:32:38;17.70;;;7.10;;
71606;SDS011;60641;53.556;9.914;2022-12-18T05:35:06;17.20;;;7.40;;
71606;SDS011;60641;53.556;9.914;2022-12-18T05:37:33;14.70;;;6.80;;
71606;SDS011;60641;53.556;9.914;2022-12-18T05:39:59;14.70;;;6.40;;
71606;SDS011;60641;53.556;9.914;2022-12-18T05:42:26;15.30;;;6.40;;
71606;SDS011;60641;53.556;9.914;2022-12-18T05:44:52;15.80;;;7.30;;
71606;SDS011;60641;53.556;9.914;2022-12-18T05:47:19;12.80;;;7.00;;
71606;SDS011;60641;53.556;9.914;2022-12-18T05:49:45;13.80;;;6.80;;
71606;SDS011;60641;53.556;9.914;2022-12-18T05:52:11;14.90;;;7.00;;
71606;SDS011;60641;53.556;9.914;2022-12-18T05:54:38;16.00;;;7.40;;
71606;SDS011;60641;53.556;9.914;2022-12-18T05:57:05;15.30;;;6.80;;
71606;SDS011;60641;53.556;9.914;2022-12-18T05:59:32;17.70;;;6.60;;
71606;SDS011;60641;53.556;9.914;2022-12-18T06:01:58;15.10;;;7.10;;
71606;SDS011;60641;53.556;9.914;2022-12-18T06:04:26;16.50;;;7.60;;
71606;SDS011;60641;53.556;9.914;2022-12-18T06:06:54;15.00;;;6.90;;
71606;SDS011;60641;53.556;9.914;2022-12-18T06:09:21;16.50;;;7.10;;
71606;SDS011;60641;53.556;9.914;2022-12-18T06:11:47;12.40;;;7.20;;
71606;SDS011;60641;53.556;9.914;2022-12-18T06:14:13;14.90;;;6.80;;
71606;SDS011;60641;53.556;9.914;2022-12-18T06:16:43;14.70;;;6.70;;
71606;SDS011;60641;53.556;9.914;2022-12-18T06:19:12;17.20;;;6.70;;
71606;SDS011;60641;53.556;9.914;2022-12-18T06:21:41;16.40;;;6.70;;
71606;SDS011;60641;53.556;9.914;2022-12-18T06:24:07;15.80;;;7.10;;
71606;SDS011;60641;53.556;9.914;2022-12-18T06:26:33;15.10;;;6.90;;
71606;SDS011;60641;53.556;9.914;2022-12-18T06:29:00;13.60;;;6.50;;
71606;SDS011;60641;53.556;9.914;2022-12-18T06:31:26;17.30;;;7.00;;
71606;SDS011;60641;53.556;9.914;2022-12-18T06:33:53;15.80;;;6.80;;
71606;SDS011;60641;53.556;9.914;2022-12-18T06:36:19;17.80;;;7.40;;
71606;SDS011;60641;53.556;9.914;2022-12-18T06:38:47;18.30;;;7.80;;
71606;SDS011;60641;53.556;9.914;2022-12-18T06:41:14;10.20;;;6.80;;
71606;SDS011;60641;53.556;9.914;2022-12-18T06:43:44;16.60;;;6.90;;
71606;SDS011;60641;53.556;9.914;2022-12-18T06:46:11;15.60;;;7.00;;
71606;SDS011;60641;53.556;9.914;2022-12-18T06:48:38;14.10;;;6.70;;
71606;SDS011;60641;53.556;9.914;2022-12-18T06:51:05;15.80;;;6.70;;
71606;SDS011;60641;53.556;9.914;2022-12-18T06:53:31;16.20;;;6.30;;
71606;SDS011;60641;53.556;9.914;2022-12-18T06:56:02;14.90;;;6.80;;
71606;SDS011;60641;53.556;9.914;2022-12-18T06:58:29;16.30;;;6.20;;
71606;SDS011;60641;53.556;9.914;2022-12-18T07:00:59;15.30;;;6.60;;
71606;SDS011;60641;53.556;9.914;2022-12-18T07:03:27;16.00;;;6.50;;
71606;SDS011;60641;53.556;9.914;2022-12-18T07:05:53;15.00;;;6.60;;
71606;SDS011;60641;53.556;9.914;2022-12-18T07:08:20;15.30;;;6.40;;
71606;SDS011;60641;53.556;9.914;2022-12-18T07:10:47;15.50;;;6.70;;
71606;SDS011;60641;53.556;9.914;2022-12-18T07:13:15;17.80;;;7.80;;
71606;SDS011;60641;53.556;9.914;2022-12-18T07:15:43;14.30;;;5.90;;
71606;SDS011;60641;53.556;9.914;2022-12-18T07:18:10;19.50;;;7.50;;
71606;SDS011;60641;53.556;9.914;2022-12-18T07:20:36;12.90;;;5.80;;
71606;SDS011;60641;53.556;9.914;2022-12-18T07:23:03;15.70;;;6.80;;
71606;SDS011;60641;53.556;9.914;2022-12-18T07:25:34;13.40;;;6.50;;
71606;SDS011;60641;53.556;9.914;2022-12-18T07:28:01;15.80;;;6.50;;
71606;SDS011;60641;53.556;9.914;2022-12-18T07:30:27;14.10;;;5.90;;
71606;SDS011;60641;53.556;9.914;2022-12-18T07:32:54;17.20;;;6.80;;
71606;SDS011;60641;53.556;9.914;2022-12-18T07:35:20;19.50;;;6.40;;
71606;SDS011;60641;53.556;9.914;2022-12-18T07:37:47;17.80;;;7.30;;
71606;SDS011;60641;53.556;9.914;2022-12-18T07:40:13;14.70;;;7.00;;
71606;SDS011;60641;53.556;9.914;2022-12-18T07:42:40;14.10;;;5.70;;
71606;SDS011;60641;53.556;9.914;2022-12-18T07:45:07;14.90;;;6.20;;
71606;SDS011;60641;53.556;9.914;2022-12-18T07:47:35;15.60;;;6.60;;
71606;SDS011;60641;53.556;9.914;2022-12-18T07:50:03;17.60;;;6.70;;
71606;SDS011;60641;53.556;9.914;2022-12-18T07:52:30;16.80;;;6.70;;
71606;SDS011;60641;53.556;9.914;2022-12-18T07:54:57;16.10;;;6.20;;
71606;SDS011;60641;53.556;9.914;2022-12-18T07:57:23;13.60;;;5.60;;
71606;SDS011;60641;53.556;9.914;2022-12-18T07:59:50;17.20;;;6.50;;
71606;SDS011;60641;53.556;9.914;2022-12-18T08:02:16;13.70;;;5.80;;
71606;SDS011;60641;53.556;9.914;2022-12-18T08:04:43;16.70;;;6.60;;
71606;SDS011;60641;53.556;9.914;2022-12-18T08:07:09;16.70;;;7.10;;
71606;SDS011;60641;53.556;9.914;2022-12-18T08:09:35;14.80;;;7.00;;
71606;SDS011;60641;53.556;9.914;2022-12-18T08:12:02;12.80;;;4.90;;
71606;SDS011;60641;53.556;9.914;2022-12-18T08:14:28;18.80;;;6.70;;
71606;SDS011;60641;53.556;9.914;2022-12-18T08:16:55;13.00;;;6.40;;
71606;SDS011;60641;53.556;9.914;2022-12-18T08:19:21;15.10;;;6.70;;
71606;SDS011;60641;53.556;9.914;2022-12-18T08:21:48;13.50;;;5.90;;
71606;SDS011;60641;53.556;9.914;2022-12-18T08:24:14;17.30;;;6.90;;
71606;SDS011;60641;53.556;9.914;2022-12-18T08:26:41;16.10;;;6.40;;
71606;SDS011;60641;53.556;9.914;2022-12-18T08:29:08;15.60;;;7.00;;
71606;SDS011;60641;53.556;9.914;2022-12-18T08:31:34;15.30;;;7.70;;
71606;SDS011;60641;53.556;9.914;2022-12-18T08:34:01;14.00;;;6.60;;
71606;SDS011;60641;53.556;9.914;2022-12-18T08:36:27;15.10;;;6.80;;
71606;SDS011;60641;53.556;9.914;2022-12-18T08:38:54;17.20;;;7.00;;
71606;SDS011;60641;53.556;9.914;2022-12-18T08:41:20;16.20;;;7.20;;
71606;SDS011;60641;53.556;9.914;2022-12-18T08:43:47;16.80;;;7.10;;
71606;SDS011;60641;53.556;9.914;2022-12-18T08:46:34;13.80;;;5.20;;
71606;SDS011;60641;53.556;9.914;2022-12-18T08:49:02;13.20;;;6.20;;
71606;SDS011;60641;53.556;9.914;2022-12-18T08:51:29;15.50;;;6.40;;
71606;SDS011;60641;53.556;9.914;2022-12-18T08:53:55;16.60;;;6.80;;
71606;SDS011;60641;53.556;9.914;2022-12-18T08:56:22;17.70;;;5.90;;
71606;SDS011;60641;53.556;9.914;2022-12-18T08:58:50;15.60;;;6.40;;
71606;SDS011;60641;53.556;9.914;2022-12-18T09:01:18;16.20;;;6.70;;
71606;SDS011;60641;53.556;9.914;2022-12-18T09:03:48;15.50;;;6.20;;
71606;SDS011;60641;53.556;9.914;2022-12-18T09:06:15;15.50;;;5.30;;
71606;SDS011;60641;53.556;9.914;2022-12-18T09:08:43;17.10;;;6.70;;
71606;SDS011;60641;53.556;9.914;2022-12-18T09:11:14;14.90;;;6.20;;
71606;SDS011;60641;53.556;9.914;2022-12-18T09:13:51;14.90;;;6.40;;
71606;SDS011;60641;53.556;9.914;2022-12-18T09:16:18;15.90;;;7.10;;
71606;SDS011;60641;53.556;9.914;2022-12-18T09:18:46;14.60;;;6.10;;
71606;SDS011;60641;53.556;9.914;2022-12-18T09:21:14;16.30;;;6.80;;
71606;SDS011;60641;53.556;9.914;2022-12-18T09:23:42;16.10;;;6.60;;
71606;SDS011;60641;53.556;9.914;2022-12-18T09:26:09;16.10;;;6.60;;
71606;SDS011;60641;53.556;9.914;2022-12-18T09:28:35;15.50;;;6.90;;
71606;SDS011;60641;53.556;9.914;2022-12-18T09:31:06;15.40;;;6.40;;
71606;SDS011;60641;53.556;9.914;2022-12-18T09:33:34;16.20;;;6.10;;
71606;SDS011;60641;53.556;9.914;2022-12-18T09:36:03;15.70;;;6.50;;
71606;SDS011;60641;53.556;9.914;2022-12-18T09:38:30;14.10;;;5.60;;
71606;SDS011;60641;53.556;9.914;2022-12-18T09:41:17;13.80;;;6.10;;
71606;SDS011;60641;53.556;9.914;2022-12-18T09:43:50;17.20;;;6.90;;
71606;SDS011;60641;53.556;9.914;2022-12-18T09:46:26;19.30;;;6.90;;
71606;SDS011;60641;53.556;9.914;2022-12-18T09:48:56;12.90;;;5.40;;
71606;SDS011;60641;53.556;9.914;2022-12-18T09:51:27;14.60;;;6.30;;
71606;SDS011;60641;53.556;9.914;2022-12-18T09:54:03;15.10;;;6.60;;
71606;SDS011;60641;53.556;9.914;2022-12-18T09:56:34;13.00;;;6.30;;
71606;SDS011;60641;53.556;9.914;2022-12-18T09:59:02;19.60;;;7.50;;
71606;SDS011;60641;53.556;9.914;2022-12-18T10:01:30;14.90;;;6.40;;
71606;SDS011;60641;53.556;9.914;2022-12-18T10:03:57;14.90;;;6.30;;
71606;SDS011;60641;53.556;9.914;2022-12-18T10:06:26;17.30;;;7.60;;
71606;SDS011;60641;53.556;9.914;2022-12-18T10:09:01;15.00;;;6.50;;
71606;SDS011;60641;53.556;9.914;2022-12-18T10:19:24;13.80;;;5.80;;
71606;SDS011;60641;53.556;9.914;2022-12-18T10:25:02;16.20;;;5.90;;
71606;SDS011;60641;53.556;9.914;2022-12-18T10:27:32;16.60;;;7.40;;
71606;SDS011;60641;53.556;9.914;2022-12-18T10:29:58;13.70;;;6.70;;
71606;SDS011;60641;53.556;9.914;2022-12-18T10:32:26;13.20;;;6.30;;
71606;SDS011;60641;53.556;9.914;2022-12-18T10:34:55;15.10;;;6.10;;
71606;SDS011;60641;53.556;9.914;2022-12-18T10:37:24;14.50;;;6.40;;
71606;SDS011;60641;53.556;9.914;2022-12-18T10:40:12;19.20;;;6.30;;
71606;SDS011;60641;53.556;9.914;2022-12-18T10:42:40;17.30;;;6.20;;
71606;SDS011;60641;53.556;9.914;2022-12-18T10:45:09;15.00;;;6.70;;
71606;SDS011;60641;53.556;9.914;2022-12-18T10:47:41;15.40;;;6.90;;
71606;SDS011;60641;53.556;9.914;2022-12-18T10:50:31;18.50;;;7.80;;
71606;SDS011;60641;53.556;9.914;2022-12-18T10:52:59;15.90;;;5.70;;
71606;SDS011;60641;53.556;9.914;2022-12-18T10:55:34;13.80;;;6.80;;
71606;SDS011;60641;53.556;9.914;2022-12-18T11:06:10;16.30;;;7.00;;
71606;SDS011;60641;53.556;9.914;2022-12-18T11:08:36;13.90;;;6.20;;
71606;SDS011;60641;53.556;9.914;2022-12-18T11:11:04;15.90;;;6.50;;
71606;SDS011;60641;53.556;9.914;2022-12-18T11:13:34;16.30;;;6.40;;
71606;SDS011;60641;53.556;9.914;2022-12-18T11:16:00;15.40;;;6.80;;
71606;SDS011;60641;53.556;9.914;2022-12-18T11:18:31;14.40;;;6.50;;
71606;SDS011;60641;53.556;9.914;2022-12-18T11:23:29;17.60;;;7.50;;
71606;SDS011;60641;53.556;9.914;2022-12-18T11:25:57;15.50;;;7.00;;
71606;SDS011;60641;53.556;9.914;2022-12-18T11:28:35;16.60;;;7.10;;
71606;SDS011;60641;53.556;9.914;2022-12-18T11:36:44;14.40;;;6.30;;
71606;SDS011;60641;53.556;9.914;2022-12-18T11:39:19;16.30;;;7.80;;
71606;SDS011;60641;53.556;9.914;2022-12-18T11:44:43;17.30;;;7.10;;
71606;SDS011;60641;53.556;9.914;2022-12-18T11:49:51;16.70;;;7.50;;
71606;SDS011;60641;53.556;9.914;2022-12-18T11:52:38;17.20;;;7.60;;
71606;SDS011;60641;53.556;9.914;2022-12-18T12:00:31;19.10;;;7.90;;
71606;SDS011;60641;53.556;9.914;2022-12-18T12:08:54;20.50;;;8.50;;
71606;SDS011;60641;53.556;9.914;2022-12-18T12:22:26;20.20;;;9.10;;
71606;SDS011;60641;53.556;9.914;2022-12-18T12:27:58;19.10;;;8.40;;
71606;SDS011;60641;53.556;9.914;2022-12-18T12:33:40;21.00;;;9.20;;
71606;SDS011;60641;53.556;9.914;2022-12-18T12:37:17;17.00;;;8.10;;
71606;SDS011;60641;53.556;9.914;2022-12-18T12:39:28;20.80;;;8.40;;
71606;SDS011;60641;53.556;9.914;2022-12-18T12:42:00;14.80;;;6.80;;
71606;SDS011;60641;53.556;9.914;2022-12-18T12:45:06;17.80;;;7.40;;
71606;SDS011;60641;53.556;9.914;2022-12-18T12:47:42;17.30;;;5.50;;
71606;SDS011;60641;53.556;9.914;2022-12-18T12:50:15;19.30;;;8.80;;
71606;SDS011;60641;53.556;9.914;2022-12-18T12:52:46;17.90;;;7.90;;
71606;SDS011;60641;53.556;9.914;2022-12-18T12:55:26;20.70;;;8.80;;
71606;SDS011;60641;53.556;9.914;2022-12-18T12:58:15;16.80;;;7.20;;
71606;SDS011;60641;53.556;9.914;2022-12-18T13:03:30;16.60;;;7.70;;
71606;SDS011;60641;53.556;9.914;2022-12-18T13:08:58;19.30;;;8.60;;
71606;SDS011;60641;53.556;9.914;2022-12-18T13:11:30;20.10;;;8.90;;
71606;SDS011;60641;53.556;9.914;2022-12-18T13:14:27;20.50;;;8.90;;
71606;SDS011;60641;53.556;9.914;2022-12-18T13:19:51;19.50;;;8.40;;
71606;SDS011;60641;53.556;9.914;2022-12-18T13:22:30;20.30;;;8.80;;
71606;SDS011;60641;53.556;9.914;2022-12-18T13:25:02;22.70;;;9.40;;
71606;SDS011;60641;53.556;9.914;2022-12-18T13:46:06;23.40;;;10.30;;
71606;SDS011;60641;53.556;9.914;2022-12-18T13:51:53;23.50;;;9.90;;
71606;SDS011;60641;53.556;9.914;2022-12-18T13:54:32;26.60;;;11.20;;
71606;SDS011;60641;53.556;9.914;2022-12-18T13:57:25;24.40;;;10.40;;
71606;SDS011;60641;53.556;9.914;2022-12-18T13:59:55;20.60;;;8.90;;
71606;SDS011;60641;53.556;9.914;2022-12-18T14:02:23;25.70;;;10.30;;
71606;SDS011;60641;53.556;9.914;2022-12-18T14:04:51;23.40;;;10.30;;
71606;SDS011;60641;53.556;9.914;2022-12-18T14:07:19;18.10;;;6.70;;
71606;SDS011;60641;53.556;9.914;2022-12-18T14:09:57;20.60;;;8.60;;
71606;SDS011;60641;53.556;9.914;2022-12-18T14:15:25;24.00;;;9.50;;
71606;SDS011;60641;53.556;9.914;2022-12-18T14:17:58;19.40;;;7.90;;
71606;SDS011;60641;53.556;9.914;2022-12-18T14:20:27;25.70;;;10.50;;
71606;SDS011;60641;53.556;9.914;2022-12-18T14:22:55;18.80;;;8.20;;
71606;SDS011;60641;53.556;9.914;2022-12-18T14:25:23;28.30;;;11.00;;
71606;SDS011;60641;53.556;9.914;2022-12-18T14:30:38;27.20;;;11.10;;
71606;SDS011;60641;53.556;9.914;2022-12-18T14:33:12;21.80;;;9.20;;
71606;SDS011;60641;53.556;9.914;2022-12-18T14:35:53;29.00;;;10.90;;
71606;SDS011;60641;53.556;9.914;2022-12-18T14:38:25;30.10;;;11.40;;
71606;SDS011;60641;53.556;9.914;2022-12-18T14:41:03;29.00;;;11.30;;
71606;SDS011;60641;53.556;9.914;2022-12-18T14:43:37;25.40;;;9.70;;
71606;SDS011;60641;53.556;9.914;2022-12-18T14:46:05;28.10;;;11.10;;
71606;SDS011;60641;53.556;9.914;2022-12-18T14:48:39;24.50;;;10.00;;
71606;SDS011;60641;53.556;9.914;2022-12-18T14:53:41;27.60;;;10.50;;
71606;SDS011;60641;53.556;9.914;2022-12-18T14:56:20;20.50;;;8.20;;
71606;SDS011;60641;53.556;9.914;2022-12-18T15:01:23;23.00;;;9.40;;
71606;SDS011;60641;53.556;9.914;2022-12-18T15:03:52;25.10;;;10.00;;
71606;SDS011;60641;53.556;9.914;2022-12-18T15:06:28;26.80;;;10.00;;
71606;SDS011;60641;53.556;9.914;2022-12-18T15:09:02;31.40;;;12.80;;
71606;SDS011;60641;53.556;9.914;2022-12-18T15:11:35;29.80;;;11.30;;
71606;SDS011;60641;53.556;9.914;2022-12-18T15:14:28;30.30;;;11.90;;
71606;SDS011;60641;53.556;9.914;2022-12-18T15:17:02;23.00;;;9.10;;
71606;SDS011;60641;53.556;9.914;2022-12-18T15:19:32;28.20;;;11.40;;
71606;SDS011;60641;53.556;9.914;2022-12-18T15:22:03;23.90;;;8.80;;
71606;SDS011;60641;53.556;9.914;2022-12-18T15:24:37;31.70;;;12.10;;
71606;SDS011;60641;53.556;9.914;2022-12-18T15:27:03;29.20;;;12.50;;
71606;SDS011;60641;53.556;9.914;2022-12-18T15:29:31;28.00;;;10.50;;
71606;SDS011;60641;53.556;9.914;2022-12-18T15:32:01;31.10;;;12.10;;
71606;SDS011;60641;53.556;9.914;2022-12-18T15:34:29;29.40;;;12.20;;
71606;SDS011;60641;53.556;9.914;2022-12-18T15:37:07;30.40;;;13.40;;
71606;SDS011;60641;53.556;9.914;2022-12-18T15:39:34;30.00;;;11.60;;
71606;SDS011;60641;53.556;9.914;2022-12-18T15:42:01;30.40;;;11.60;;
71606;SDS011;60641;53.556;9.914;2022-12-18T15:44:50;26.80;;;10.90;;
71606;SDS011;60641;53.556;9.914;2022-12-18T15:47:16;32.60;;;13.00;;
71606;SDS011;60641;53.556;9.914;2022-12-18T15:49:43;29.40;;;11.30;;
71606;SDS011;60641;53.556;9.914;2022-12-18T15:52:09;31.10;;;11.50;;
71606;SDS011;60641;53.556;9.914;2022-12-18T15:54:38;33.20;;;12.30;;
71606;SDS011;60641;53.556;9.914;2022-12-18T15:57:23;24.90;;;9.40;;
71606;SDS011;60641;53.556;9.914;2022-12-18T15:59:50;34.90;;;12.40;;
71606;SDS011;60641;53.556;9.914;2022-12-18T16:02:19;33.50;;;12.60;;
71606;SDS011;60641;53.556;9.914;2022-12-18T16:04:46;32.00;;;11.60;;
71606;SDS011;60641;53.556;9.914;2022-12-18T16:07:13;28.40;;;11.40;;
71606;SDS011;60641;53.556;9.914;2022-12-18T16:09:39;25.20;;;10.10;;
71606;SDS011;60641;53.556;9.914;2022-12-18T16:12:11;21.90;;;8.50;;
71606;SDS011;60641;53.556;9.914;2022-12-18T16:14:42;31.00;;;12.10;;
71606;SDS011;60641;53.556;9.914;2022-12-18T16:17:09;31.10;;;14.40;;
71606;SDS011;60641;53.556;9.914;2022-12-18T16:19:43;30.50;;;11.20;;
71606;SDS011;60641;53.556;9.914;2022-12-18T16:22:20;25.00;;;9.40;;
71606;SDS011;60641;53.556;9.914;2022-12-18T16:24:49;28.30;;;11.20;;
71606;SDS011;60641;53.556;9.914;2022-12-18T16:27:17;29.20;;;11.00;;
71606;SDS011;60641;53.556;9.914;2022-12-18T16:29:44;22.30;;;8.50;;
71606;SDS011;60641;53.556;9.914;2022-12-18T16:32:12;29.70;;;10.60;;
71606;SDS011;60641;53.556;9.914;2022-12-18T16:34:48;29.70;;;12.20;;
71606;SDS011;60641;53.556;9.914;2022-12-18T16:37:15;27.00;;;10.80;;
71606;SDS011;60641;53.556;9.914;2022-12-18T16:39:42;29.70;;;10.60;;
71606;SDS011;60641;53.556;9.914;2022-12-18T16:42:12;30.60;;;11.30;;
71606;SDS011;60641;53.556;9.914;2022-12-18T16:44:43;29.30;;;11.60;;
71606;SDS011;60641;53.556;9.914;2022-12-18T16:47:10;25.80;;;8.70;;
71606;SDS011;60641;53.556;9.914;2022-12-18T16:49:36;26.00;;;9.60;;
71606;SDS011;60641;53.556;9.914;2022-12-18T16:52:03;25.90;;;10.50;;
71606;SDS011;60641;53.556;9.914;2022-12-18T16:54:31;20.90;;;7.80;;
71606;SDS011;60641;53.556;9.914;2022-12-18T16:56:58;24.60;;;10.00;;
71606;SDS011;60641;53.556;9.914;2022-12-18T16:59:26;24.80;;;9.20;;
71606;SDS011;60641;53.556;9.914;2022-12-18T17:01:52;22.60;;;8.30;;